Time,TemperatureF,DewpointF,PressureIn,WindDirection,WindDirectionDegrees,WindSpeedMPH,WindSpeedGustMPH,Humidity,HourlyPrecipIn,Conditions,Clouds,dailyrainin,SoftwareType,DateUTC
2013-02-08 00:00:00,69.6,62.0,29.40,South,180,0.0,0.0,77,0.00,,,0.00,WUHU21623XXSP,2013-02-08 05:00:00,
2013-02-08 00:02:00,69.6,62.0,29.40,South,180,0.0,0.0,77,0.00,,,0.00,WUHU21623XXSP,2013-02-08 05:02:00,
2013-02-08 00:06:00,69.6,62.0,29.40,SSW,202,0.0,0.0,77,0.00,,,0.00,WUHU21623XXSP,2013-02-08 05:06:00,
2013-02-08 00:11:00,69.6,62.0,29.40,South,180,0.0,0.0,77,0.00,,,0.00,WUHU21623XXSP,2013-02-08 05:11:00,
2013-02-08 00:16:00,69.6,62.4,29.40,SSE,157,0.0,0.0,78,0.00,,,0.00,WUHU21623XXSP,2013-02-08 05:16:00,
2013-02-08 00:21:00,69.6,62.4,29.40,South,180,0.0,0.0,78,0.00,,,0.00,WUHU21623XXSP,2013-02-08 05:21:00,
2013-02-08 00:26:00,69.6,62.4,29.40,South,180,0.0,0.0,78,0.00,,,0.00,WUHU21623XXSP,2013-02-08 05:26:00,
2013-02-08 00:31:00,69.6,62.4,29.40,South,180,0.0,0.0,78,0.00,,,0.00,WUHU21623XXSP,2013-02-08 05:31:00,
2013-02-08 00:36:00,69.6,62.4,29.40,South,180,0.0,0.0,78,0.00,,,0.00,WUHU21623XXSP,2013-02-08 05:36:00,
2013-02-08 00:41:00,69.6,62.4,29.40,South,180,0.0,0.0,78,0.00,,,0.00,WUHU21623XXSP,2013-02-08 05:41:00,
2013-02-08 00:46:00,69.6,62.4,29.39,WNW,292,0.0,0.0,78,0.00,,,0.00,WUHU21623XXSP,2013-02-08 05:46:00,
2013-02-08 00:51:00,69.6,62.4,29.37,SSE,157,0.0,0.0,78,0.00,,,0.00,WUHU21623XXSP,2013-02-08 05:51:00,
2013-02-08 00:56:00,69.6,62.8,29.36,South,180,0.0,0.0,79,0.00,,,0.00,WUHU21623XXSP,2013-02-08 05:56:00,
2013-02-08 01:01:00,69.6,62.8,29.36,South,180,0.0,0.0,79,0.00,,,0.00,WUHU21623XXSP,2013-02-08 06:01:00,
2013-02-08 01:06:00,69.6,62.8,29.38,WSW,247,0.0,0.0,79,0.00,,,0.00,WUHU21623XXSP,2013-02-08 06:06:00,
2013-02-08 01:11:00,69.6,62.8,29.39,WSW,247,0.0,0.0,79,0.00,,,0.00,WUHU21623XXSP,2013-02-08 06:11:00,
2013-02-08 01:16:00,69.8,62.9,29.39,SSW,202,0.0,0.0,79,0.00,,,0.00,WUHU21623XXSP,2013-02-08 06:16:00,
2013-02-08 01:21:00,70.0,63.1,29.40,SSW,202,0.0,0.0,79,0.00,,,0.00,WUHU21623XXSP,2013-02-08 06:21:00,
2013-02-08 01:26:00,70.0,63.1,29.40,WSW,247,0.0,0.0,79,0.00,,,0.00,WUHU21623XXSP,2013-02-08 06:26:00,
2013-02-08 01:31:00,70.0,63.1,29.40,WSW,247,0.0,0.0,79,0.00,,,0.00,WUHU21623XXSP,2013-02-08 06:31:00,
2013-02-08 01:36:00,70.0,63.1,29.40,SW,225,0.0,0.0,79,0.00,,,0.00,WUHU21623XXSP,2013-02-08 06:36:00,
2013-02-08 01:41:00,69.8,62.9,29.40,SSW,202,0.0,0.0,79,0.00,,,0.00,WUHU21623XXSP,2013-02-08 06:41:00,
2013-02-08 01:46:00,69.8,62.9,29.39,South,180,0.0,0.0,79,0.00,,,0.00,WUHU21623XXSP,2013-02-08 06:46:00,
2013-02-08 01:51:00,69.6,62.8,29.38,SSW,202,0.0,0.0,79,0.00,,,0.00,WUHU21623XXSP,2013-02-08 06:51:00,
2013-02-08 01:57:00,69.6,63.2,29.38,SSW,202,0.0,0.0,80,0.00,,,0.00,WUHU21623XXSP,2013-02-08 06:57:00,
2013-02-08 02:01:00,69.6,63.2,29.38,South,180,0.0,0.0,80,0.00,,,0.00,WUHU21623XXSP,2013-02-08 07:01:00,
2013-02-08 02:06:00,69.6,63.2,29.37,SSE,157,0.0,0.0,80,0.00,,,0.00,WUHU21623XXSP,2013-02-08 07:06:00,
2013-02-08 02:12:00,69.6,63.2,29.36,SSE,157,0.0,0.0,80,0.00,,,0.00,WUHU21623XXSP,2013-02-08 07:12:00,
2013-02-08 02:17:00,69.6,63.2,29.36,South,180,0.0,0.0,80,0.00,,,0.00,WUHU21623XXSP,2013-02-08 07:17:00,
2013-02-08 02:21:00,69.6,63.2,29.36,South,180,0.0,0.0,80,0.00,,,0.00,WUHU21623XXSP,2013-02-08 07:21:00,
2013-02-08 02:27:00,69.6,63.2,29.36,South,180,0.0,0.0,80,0.00,,,0.00,WUHU21623XXSP,2013-02-08 07:27:00,
2013-02-08 02:32:00,69.6,63.2,29.37,SW,225,0.0,0.0,80,0.00,,,0.00,WUHU21623XXSP,2013-02-08 07:32:00,
2013-02-08 02:37:00,70.0,63.5,29.38,WSW,247,0.0,0.0,80,0.00,,,0.00,WUHU21623XXSP,2013-02-08 07:37:00,
2013-02-08 02:42:00,70.0,63.5,29.38,WSW,247,0.0,0.0,80,0.00,,,0.00,WUHU21623XXSP,2013-02-08 07:42:00,
2013-02-08 02:47:00,69.8,63.3,29.38,WSW,247,0.0,0.0,80,0.00,,,0.00,WUHU21623XXSP,2013-02-08 07:47:00,
2013-02-08 02:52:00,69.8,63.3,29.38,WSW,247,0.0,0.0,80,0.00,,,0.00,WUHU21623XXSP,2013-02-08 07:52:00,
2013-02-08 02:57:00,70.0,63.8,29.38,WSW,247,0.0,0.0,81,0.00,,,0.00,WUHU21623XXSP,2013-02-08 07:57:00,
2013-02-08 03:02:00,69.8,63.7,29.38,WSW,247,0.0,0.0,81,0.00,,,0.00,WUHU21623XXSP,2013-02-08 08:02:00,
2013-02-08 03:07:00,69.8,63.7,29.38,WSW,247,0.0,0.0,81,0.00,,,0.00,WUHU21623XXSP,2013-02-08 08:07:00,
2013-02-08 03:12:00,69.6,63.5,29.37,SSE,157,0.0,0.0,81,0.00,,,0.00,WUHU21623XXSP,2013-02-08 08:12:00,
2013-02-08 03:17:00,69.6,63.5,29.37,South,180,0.0,0.0,81,0.00,,,0.00,WUHU21623XXSP,2013-02-08 08:17:00,
2013-02-08 03:22:00,69.6,63.5,29.37,South,180,0.0,0.0,81,0.00,,,0.00,WUHU21623XXSP,2013-02-08 08:22:00,
2013-02-08 03:27:00,69.6,63.8,29.37,South,180,0.0,0.0,82,0.00,,,0.00,WUHU21623XXSP,2013-02-08 08:27:00,
2013-02-08 03:32:00,69.4,63.7,29.37,SW,225,0.0,0.0,82,0.00,,,0.00,WUHU21623XXSP,2013-02-08 08:32:00,
2013-02-08 03:37:00,69.4,63.7,29.37,SSW,202,0.0,0.0,82,0.00,,,0.00,WUHU21623XXSP,2013-02-08 08:37:00,
2013-02-08 03:42:00,69.4,63.7,29.37,SE,135,0.0,0.0,82,0.00,,,0.00,WUHU21623XXSP,2013-02-08 08:42:00,
2013-02-08 03:47:00,69.4,63.7,29.37,SW,225,0.0,0.0,82,0.00,,,0.00,WUHU21623XXSP,2013-02-08 08:47:00,
2013-02-08 03:52:00,69.3,63.5,29.38,SW,225,0.0,0.0,82,0.00,,,0.00,WUHU21623XXSP,2013-02-08 08:52:00,
2013-02-08 03:57:00,69.3,63.5,29.38,SSW,202,0.0,0.0,82,0.00,,,0.00,WUHU21623XXSP,2013-02-08 08:57:00,
2013-02-08 04:02:00,69.4,63.7,29.38,SW,225,0.0,0.0,82,0.00,,,0.00,WUHU21623XXSP,2013-02-08 09:02:00,
2013-02-08 04:07:00,69.3,63.7,29.38,West,270,0.0,0.0,83,0.00,,,0.00,WUHU21623XXSP,2013-02-08 09:07:00,
2013-02-08 04:12:00,69.3,63.8,29.38,WSW,247,0.0,0.0,83,0.00,,,0.00,WUHU21623XXSP,2013-02-08 09:12:00,
2013-02-08 04:17:00,69.3,63.8,29.38,SSW,202,0.0,0.0,83,0.00,,,0.00,WUHU21623XXSP,2013-02-08 09:17:00,
2013-02-08 04:22:00,69.1,63.7,29.38,SSE,157,0.0,0.0,83,0.00,,,0.00,WUHU21623XXSP,2013-02-08 09:22:00,
2013-02-08 04:27:00,69.3,63.7,29.37,South,180,0.0,0.0,83,0.00,,,0.00,WUHU21623XXSP,2013-02-08 09:27:00,
2013-02-08 04:32:00,69.1,63.7,29.37,SSW,202,0.0,0.0,83,0.00,,,0.00,WUHU21623XXSP,2013-02-08 09:32:00,
2013-02-08 04:37:00,69.4,64.3,29.37,SSW,202,0.0,0.0,84,0.00,,,0.00,WUHU21623XXSP,2013-02-08 09:37:00,
2013-02-08 04:42:00,69.4,64.3,29.38,West,270,0.0,0.0,84,0.00,,,0.00,WUHU21623XXSP,2013-02-08 09:42:00,
2013-02-08 04:47:00,69.4,64.3,29.38,WSW,247,0.0,0.0,84,0.00,,,0.00,WUHU21623XXSP,2013-02-08 09:47:00,
2013-02-08 04:52:00,69.4,64.3,29.38,WSW,247,0.0,0.0,84,0.00,,,0.00,WUHU21623XXSP,2013-02-08 09:52:00,
2013-02-08 04:57:00,69.4,64.3,29.38,WSW,247,0.0,0.0,84,0.00,,,0.00,WUHU21623XXSP,2013-02-08 09:57:00,
2013-02-08 05:02:00,69.4,64.3,29.37,SSW,202,0.0,0.0,84,0.00,,,0.00,WUHU21623XXSP,2013-02-08 10:02:00,
2013-02-08 05:07:00,69.4,64.3,29.37,SSW,202,0.0,0.0,84,0.00,,,0.00,WUHU21623XXSP,2013-02-08 10:07:00,
2013-02-08 05:12:00,69.4,64.3,29.37,South,180,0.0,0.0,84,0.00,,,0.00,WUHU21623XXSP,2013-02-08 10:12:00,
2013-02-08 05:17:00,69.4,64.3,29.37,South,180,0.0,0.0,84,0.00,,,0.00,WUHU21623XXSP,2013-02-08 10:17:00,
2013-02-08 05:22:00,69.4,64.3,29.38,SSW,202,0.0,0.0,84,0.00,,,0.00,WUHU21623XXSP,2013-02-08 10:22:00,
2013-02-08 05:27:00,69.4,64.7,29.38,SSW,202,0.0,0.0,85,0.00,,,0.00,WUHU21623XXSP,2013-02-08 10:27:00,
2013-02-08 05:32:00,69.4,64.7,29.38,SSW,202,0.0,0.0,85,0.00,,,0.00,WUHU21623XXSP,2013-02-08 10:32:00,
2013-02-08 05:37:00,69.4,64.7,29.38,SSW,202,0.0,0.0,85,0.00,,,0.00,WUHU21623XXSP,2013-02-08 10:37:00,
2013-02-08 05:42:00,69.6,64.8,29.39,WSW,247,0.0,0.0,85,0.00,,,0.00,WUHU21623XXSP,2013-02-08 10:42:00,
2013-02-08 05:47:00,69.6,64.8,29.39,WSW,247,0.0,0.0,85,0.00,,,0.00,WUHU21623XXSP,2013-02-08 10:47:00,
2013-02-08 05:52:00,69.6,64.8,29.39,SSW,202,0.0,0.0,85,0.00,,,0.00,WUHU21623XXSP,2013-02-08 10:52:00,
2013-02-08 05:57:00,69.6,64.8,29.39,SW,225,0.0,0.0,85,0.00,,,0.00,WUHU21623XXSP,2013-02-08 10:57:00,
2013-02-08 06:02:00,69.4,65.0,29.39,WSW,247,0.0,0.0,86,0.00,,,0.00,WUHU21623XXSP,2013-02-08 11:02:00,
2013-02-08 06:07:00,69.4,65.0,29.40,SW,225,0.0,0.0,86,0.00,,,0.00,WUHU21623XXSP,2013-02-08 11:07:00,
2013-02-08 06:12:00,69.4,65.0,29.40,West,270,0.0,0.0,86,0.00,,,0.00,WUHU21623XXSP,2013-02-08 11:12:00,
2013-02-08 06:17:00,69.4,65.0,29.40,SSW,202,0.0,0.0,86,0.00,,,0.00,WUHU21623XXSP,2013-02-08 11:17:00,
2013-02-08 06:22:00,69.4,65.0,29.40,South,180,0.0,0.0,86,0.00,,,0.00,WUHU21623XXSP,2013-02-08 11:22:00,
2013-02-08 06:27:00,69.3,64.8,29.40,SW,225,0.0,0.0,86,0.00,,,0.00,WUHU21623XXSP,2013-02-08 11:27:00,
2013-02-08 06:32:00,69.3,64.8,29.40,South,180,0.0,0.0,86,0.00,,,0.00,WUHU21623XXSP,2013-02-08 11:32:00,
2013-02-08 06:37:00,69.3,64.8,29.40,SW,225,0.0,0.0,86,0.00,,,0.00,WUHU21623XXSP,2013-02-08 11:37:00,
2013-02-08 06:42:00,69.3,64.8,29.40,SSW,202,0.0,0.0,86,0.00,,,0.00,WUHU21623XXSP,2013-02-08 11:42:00,
2013-02-08 06:47:00,69.4,65.0,29.41,West,270,0.0,0.0,86,0.00,,,0.00,WUHU21623XXSP,2013-02-08 11:47:00,
2013-02-08 06:52:00,69.4,65.4,29.41,WSW,247,0.0,0.0,87,0.00,,,0.00,WUHU21623XXSP,2013-02-08 11:52:00,
2013-02-08 06:57:00,69.4,65.4,29.41,SW,225,0.0,0.0,87,0.00,,,0.00,WUHU21623XXSP,2013-02-08 11:57:00,
2013-02-08 07:02:00,69.3,65.2,29.41,West,270,0.0,0.0,87,0.00,,,0.00,WUHU21623XXSP,2013-02-08 12:02:00,
2013-02-08 07:07:00,69.4,65.4,29.41,SSW,202,0.0,0.0,87,0.00,,,0.00,WUHU21623XXSP,2013-02-08 12:07:00,
2013-02-08 07:12:00,69.4,65.4,29.41,WSW,247,0.0,0.0,87,0.00,,,0.00,WUHU21623XXSP,2013-02-08 12:12:00,
2013-02-08 07:17:00,69.4,65.4,29.42,West,270,0.0,0.0,87,0.00,,,0.00,WUHU21623XXSP,2013-02-08 12:17:00,
2013-02-08 07:22:00,69.4,65.4,29.41,SSW,202,0.0,0.0,87,0.00,,,0.00,WUHU21623XXSP,2013-02-08 12:22:00,
2013-02-08 07:27:00,69.6,65.5,29.41,SSW,202,0.0,0.0,87,0.00,,,0.00,WUHU21623XXSP,2013-02-08 12:27:00,
2013-02-08 07:32:00,69.6,65.5,29.41,SW,225,0.0,0.0,87,0.00,,,0.00,WUHU21623XXSP,2013-02-08 12:32:00,
2013-02-08 07:37:00,69.8,65.7,29.42,SW,225,0.0,0.0,87,0.00,,,0.00,WUHU21623XXSP,2013-02-08 12:37:00,
2013-02-08 07:42:00,70.0,65.9,29.43,WSW,247,0.0,0.0,87,0.00,,,0.00,WUHU21623XXSP,2013-02-08 12:42:00,
2013-02-08 07:47:00,70.0,65.9,29.43,WSW,247,0.0,0.0,87,0.00,,,0.00,WUHU21623XXSP,2013-02-08 12:47:00,
2013-02-08 07:52:00,70.3,66.3,29.43,WSW,247,0.0,0.0,87,0.00,,,0.00,WUHU21623XXSP,2013-02-08 12:52:00,
2013-02-08 07:57:00,70.3,66.3,29.43,WSW,247,0.0,0.0,87,0.00,,,0.00,WUHU21623XXSP,2013-02-08 12:57:00,
2013-02-08 08:02:00,70.5,66.4,29.43,SW,225,0.0,0.0,87,0.00,,,0.00,WUHU21623XXSP,2013-02-08 13:02:00,
2013-02-08 08:07:00,71.1,67.0,29.43,West,270,0.0,0.0,87,0.00,,,0.00,WUHU21623XXSP,2013-02-08 13:07:00,
2013-02-08 08:12:00,71.2,67.2,29.43,SW,225,0.0,0.0,87,0.00,,,0.00,WUHU21623XXSP,2013-02-08 13:12:00,
2013-02-08 08:17:00,71.4,67.0,29.43,WSW,247,0.0,0.0,86,0.00,,,0.00,WUHU21623XXSP,2013-02-08 13:17:00,
2013-02-08 08:22:00,71.8,67.4,29.43,SSW,202,0.0,0.0,86,0.00,,,0.00,WUHU21623XXSP,2013-02-08 13:22:00,
2013-02-08 08:27:00,72.1,67.4,29.43,WSW,247,0.0,0.0,85,0.00,,,0.00,WUHU21623XXSP,2013-02-08 13:27:00,
2013-02-08 08:32:00,72.3,67.2,29.43,SSW,202,0.0,0.0,84,0.00,,,0.00,WUHU21623XXSP,2013-02-08 13:32:00,
2013-02-08 08:37:00,72.5,67.4,29.43,SW,225,0.0,0.0,84,0.00,,,0.00,WUHU21623XXSP,2013-02-08 13:37:00,
2013-02-08 08:42:00,72.7,67.2,29.43,West,270,0.0,0.0,83,0.00,,,0.00,WUHU21623XXSP,2013-02-08 13:42:00,
2013-02-08 08:47:00,73.0,67.2,29.44,SSW,202,0.0,0.0,82,0.00,,,0.00,WUHU21623XXSP,2013-02-08 13:47:00,
2013-02-08 08:52:00,73.2,67.1,29.44,SW,225,0.0,0.0,81,0.00,,,0.00,WUHU21623XXSP,2013-02-08 13:52:00,
2013-02-08 08:57:00,73.6,67.1,29.44,SW,225,0.0,0.0,80,0.00,,,0.00,WUHU21623XXSP,2013-02-08 13:57:00,
2013-02-08 09:02:00,74.1,67.6,29.44,West,270,0.0,0.0,80,0.00,,,0.00,WUHU21623XXSP,2013-02-08 14:02:00,
2013-02-08 09:07:00,74.5,67.6,29.44,SSW,202,0.0,0.0,79,0.00,,,0.00,WUHU21623XXSP,2013-02-08 14:07:00,
2013-02-08 09:12:00,75.0,67.7,29.45,SW,225,0.0,0.0,78,0.00,,,0.00,WUHU21623XXSP,2013-02-08 14:12:00,
2013-02-08 09:17:00,75.0,67.4,29.45,WSW,247,0.0,0.0,77,0.00,,,0.00,WUHU21623XXSP,2013-02-08 14:17:00,
2013-02-08 09:22:00,75.4,67.3,29.45,WSW,247,0.0,0.0,76,0.00,,,0.00,WUHU21623XXSP,2013-02-08 14:22:00,
2013-02-08 09:27:00,75.7,67.6,29.46,West,270,0.0,0.0,76,0.00,,,0.00,WUHU21623XXSP,2013-02-08 14:27:00,
2013-02-08 09:32:00,75.9,67.0,29.46,WSW,247,0.0,0.0,74,0.00,,,0.00,WUHU21623XXSP,2013-02-08 14:32:00,
2013-02-08 09:37:00,75.9,67.0,29.47,West,270,0.0,0.0,74,0.00,,,0.00,WUHU21623XXSP,2013-02-08 14:37:00,
2013-02-08 09:42:00,75.9,66.6,29.47,West,270,0.0,0.0,73,0.00,,,0.00,WUHU21623XXSP,2013-02-08 14:42:00,
2013-02-08 09:47:00,76.3,66.6,29.47,West,270,0.0,0.0,72,0.00,,,0.00,WUHU21623XXSP,2013-02-08 14:47:00,
2013-02-08 09:52:00,76.3,67.0,29.47,West,270,0.0,0.0,73,0.00,,,0.00,WUHU21623XXSP,2013-02-08 14:52:00,
2013-02-08 09:57:00,76.8,67.5,29.46,WSW,247,0.0,0.0,73,0.00,,,0.00,WUHU21623XXSP,2013-02-08 14:57:00,
2013-02-08 10:02:00,77.2,67.5,29.47,West,270,0.0,0.0,72,0.00,,,0.00,WUHU21623XXSP,2013-02-08 15:02:00,
2013-02-08 10:07:00,77.4,67.6,29.46,WNW,292,0.0,0.0,72,0.00,,,0.00,WUHU21623XXSP,2013-02-08 15:07:00,
2013-02-08 10:12:00,77.9,67.4,29.46,WSW,247,0.0,0.0,70,0.00,,,0.00,WUHU21623XXSP,2013-02-08 15:12:00,
2013-02-08 10:17:00,78.6,68.0,29.47,West,270,0.0,0.0,70,0.00,,,0.00,WUHU21623XXSP,2013-02-08 15:17:00,
2013-02-08 10:22:00,78.6,68.0,29.47,West,270,0.0,0.0,70,0.00,,,0.00,WUHU21623XXSP,2013-02-08 15:22:00,
2013-02-08 10:27:00,78.1,67.5,29.47,West,270,0.0,0.0,70,0.00,,,0.00,WUHU21623XXSP,2013-02-08 15:27:00,
2013-02-08 10:32:00,78.6,68.4,29.47,West,270,0.0,0.0,71,0.00,,,0.00,WUHU21623XXSP,2013-02-08 15:32:00,
2013-02-08 10:37:00,78.4,67.9,29.47,West,270,0.0,0.0,70,0.00,,,0.00,WUHU21623XXSP,2013-02-08 15:37:00,
2013-02-08 10:42:00,78.1,67.9,29.47,West,270,0.0,0.0,71,0.00,,,0.00,WUHU21623XXSP,2013-02-08 15:42:00,
2013-02-08 10:47:00,79.0,68.4,29.47,WNW,292,0.0,0.0,70,0.00,,,0.00,WUHU21623XXSP,2013-02-08 15:47:00,
2013-02-08 10:52:00,78.6,68.4,29.46,WNW,292,0.0,0.0,71,0.00,,,0.00,WUHU21623XXSP,2013-02-08 15:52:00,
2013-02-08 10:57:00,78.4,68.2,29.47,West,270,0.0,0.0,71,0.00,,,0.00,WUHU21623XXSP,2013-02-08 15:57:00,
2013-02-08 11:02:00,77.7,68.0,29.46,WSW,247,0.0,0.0,72,0.00,,,0.00,WUHU21623XXSP,2013-02-08 16:02:00,
2013-02-08 11:07:00,77.4,68.0,29.46,West,270,0.0,0.0,73,0.00,,,0.00,WUHU21623XXSP,2013-02-08 16:07:00,
2013-02-08 11:12:00,77.5,67.8,29.46,West,270,0.0,0.0,72,0.00,,,0.00,WUHU21623XXSP,2013-02-08 16:12:00,
2013-02-08 11:17:00,77.7,68.0,29.46,West,270,0.0,0.0,72,0.00,,,0.00,WUHU21623XXSP,2013-02-08 16:17:00,
2013-02-08 11:22:00,79.0,68.4,29.46,WNW,292,0.0,0.0,70,0.00,,,0.00,WUHU21623XXSP,2013-02-08 16:22:00,
2013-02-08 11:27:00,79.2,68.5,29.45,West,270,0.0,0.0,70,0.00,,,0.00,WUHU21623XXSP,2013-02-08 16:27:00,
2013-02-08 11:32:00,79.0,68.4,29.45,West,270,0.0,0.0,70,0.00,,,0.00,WUHU21623XXSP,2013-02-08 16:32:00,
2013-02-08 11:37:00,79.7,68.2,29.45,WNW,292,0.0,0.0,68,0.00,,,0.00,WUHU21623XXSP,2013-02-08 16:37:00,
2013-02-08 11:42:00,80.4,68.5,29.46,West,270,0.0,0.0,67,0.00,,,0.00,WUHU21623XXSP,2013-02-08 16:42:00,
2013-02-08 11:47:00,80.2,68.3,29.46,NNW,337,0.0,0.0,67,0.00,,,0.00,WUHU21623XXSP,2013-02-08 16:47:00,
2013-02-08 11:52:00,80.4,68.5,29.46,WNW,292,0.0,0.0,67,0.00,,,0.00,WUHU21623XXSP,2013-02-08 16:52:00,
2013-02-08 11:57:00,81.7,69.2,29.46,WNW,292,0.0,0.0,66,0.00,,,0.00,WUHU21623XXSP,2013-02-08 16:57:00,
2013-02-08 12:02:00,81.0,68.1,29.45,WSW,247,0.0,0.0,65,0.00,,,0.00,WUHU21623XXSP,2013-02-08 17:02:00,
2013-02-08 12:07:00,81.7,68.3,29.45,West,270,0.0,0.0,64,0.00,,,0.00,WUHU21623XXSP,2013-02-08 17:07:00,
2013-02-08 12:12:00,81.3,67.9,29.45,West,270,0.0,0.0,64,0.00,,,0.00,WUHU21623XXSP,2013-02-08 17:12:00,
2013-02-08 12:17:00,81.1,68.2,29.45,NNW,337,0.0,0.0,65,0.00,,,0.00,WUHU21623XXSP,2013-02-08 17:17:00,
2013-02-08 12:22:00,80.1,68.1,29.45,NW,315,0.0,0.0,67,0.00,,,0.00,WUHU21623XXSP,2013-02-08 17:22:00,
2013-02-08 12:27:00,81.7,68.8,29.45,NW,315,0.0,0.0,65,0.00,,,0.00,WUHU21623XXSP,2013-02-08 17:27:00,
2013-02-08 12:32:00,82.0,68.6,29.45,West,270,0.0,0.0,64,0.00,,,0.00,WUHU21623XXSP,2013-02-08 17:32:00,
2013-02-08 12:37:00,82.8,68.8,29.45,NW,315,0.0,0.0,63,0.00,,,0.00,WUHU21623XXSP,2013-02-08 17:37:00,
2013-02-08 12:42:00,82.0,68.1,29.45,WSW,247,0.0,0.0,63,0.00,,,0.00,WUHU21623XXSP,2013-02-08 17:42:00,
2013-02-08 12:47:00,83.5,69.1,29.45,WNW,292,0.0,0.0,62,0.00,,,0.00,WUHU21623XXSP,2013-02-08 17:47:00,
2013-02-08 12:52:00,83.8,69.4,29.44,West,270,0.0,0.0,62,0.00,,,0.00,WUHU21623XXSP,2013-02-08 17:52:00,
2013-02-08 12:57:00,83.5,68.6,29.44,West,270,0.0,0.0,61,0.00,,,0.00,WUHU21623XXSP,2013-02-08 17:57:00,
2013-02-08 13:02:00,83.8,69.0,29.44,NNW,337,0.0,0.0,61,0.00,,,0.00,WUHU21623XXSP,2013-02-08 18:02:00,
2013-02-08 13:07:00,82.8,68.4,29.44,NW,315,0.0,0.0,62,0.00,,,0.00,WUHU21623XXSP,2013-02-08 18:07:00,
2013-02-08 13:12:00,82.0,68.0,29.43,NNW,337,0.0,0.0,62,0.00,,,0.00,WUHU21623XXSP,2013-02-08 18:12:00,
2013-02-08 13:17:00,82.6,67.7,29.43,NNW,337,0.0,0.0,61,0.00,,,0.00,WUHU21623XXSP,2013-02-08 18:17:00,
2013-02-08 13:22:00,83.3,68.5,29.43,NNW,337,0.0,0.0,61,0.00,,,0.00,WUHU21623XXSP,2013-02-08 18:22:00,
2013-02-08 13:27:00,83.8,69.0,29.43,NNW,337,0.0,0.0,61,0.00,,,0.00,WUHU21623XXSP,2013-02-08 18:27:00,
2013-02-08 13:32:00,84.4,68.5,29.43,West,270,0.0,0.0,59,0.00,,,0.00,WUHU21623XXSP,2013-02-08 18:32:00,
2013-02-08 13:37:00,84.9,68.5,29.43,WNW,292,0.0,0.0,58,0.00,,,0.00,WUHU21623XXSP,2013-02-08 18:37:00,
2013-02-08 13:42:00,83.5,67.7,29.43,North,0,0.0,0.0,59,0.00,,,0.00,WUHU21623XXSP,2013-02-08 18:42:00,
2013-02-08 13:47:00,83.3,67.5,29.42,NW,315,0.0,0.0,59,0.00,,,0.00,WUHU21623XXSP,2013-02-08 18:47:00,
2013-02-08 13:52:00,84.0,68.2,29.42,North,0,0.0,0.0,59,0.00,,,0.00,WUHU21623XXSP,2013-02-08 18:52:00,
2013-02-08 13:57:00,84.2,67.9,29.42,NNW,337,0.0,0.0,58,0.00,,,0.00,WUHU21623XXSP,2013-02-08 18:57:00,
2013-02-08 14:02:00,84.4,68.0,29.42,NNW,337,0.0,0.0,58,0.00,,,0.00,WUHU21623XXSP,2013-02-08 19:02:00,
2013-02-08 14:07:00,84.0,67.7,29.42,WNW,292,0.0,0.0,58,0.00,,,0.00,WUHU21623XXSP,2013-02-08 19:07:00,
2013-02-08 14:12:00,84.7,67.8,29.42,West,270,0.0,0.0,57,0.00,,,0.00,WUHU21623XXSP,2013-02-08 19:12:00,
2013-02-08 14:17:00,85.8,68.3,29.42,North,0,0.0,0.0,56,0.00,,,0.00,WUHU21623XXSP,2013-02-08 19:17:00,
2013-02-08 14:22:00,86.5,68.3,29.42,NW,315,0.0,0.0,55,0.00,,,0.00,WUHU21623XXSP,2013-02-08 19:22:00,
2013-02-08 14:27:00,84.4,67.5,29.41,North,0,0.0,0.0,57,0.00,,,0.00,WUHU21623XXSP,2013-02-08 19:27:00,
2013-02-08 14:32:00,84.7,67.3,29.42,North,0,0.0,0.0,56,0.00,,,0.00,WUHU21623XXSP,2013-02-08 19:32:00,
2013-02-08 14:37:00,84.0,67.2,29.41,WNW,292,0.0,0.0,57,0.00,,,0.00,WUHU21623XXSP,2013-02-08 19:37:00,
2013-02-08 14:42:00,84.7,67.8,29.41,NNW,337,0.0,0.0,57,0.00,,,0.00,WUHU21623XXSP,2013-02-08 19:42:00,
2013-02-08 14:47:00,84.7,67.3,29.41,WNW,292,0.0,0.0,56,0.00,,,0.00,WUHU21623XXSP,2013-02-08 19:47:00,
2013-02-08 14:52:00,85.3,67.8,29.41,NW,315,0.0,0.0,56,0.00,,,0.00,WUHU21623XXSP,2013-02-08 19:52:00,
2013-02-08 14:57:00,84.9,67.5,29.40,NW,315,0.0,0.0,56,0.00,,,0.00,WUHU21623XXSP,2013-02-08 19:57:00,
2013-02-08 15:02:00,85.3,67.8,29.40,West,270,0.0,0.0,56,0.00,,,0.00,WUHU21623XXSP,2013-02-08 20:02:00,
2013-02-08 15:07:00,84.0,67.2,29.40,WNW,292,0.0,0.0,57,0.00,,,0.00,WUHU21623XXSP,2013-02-08 20:07:00,
2013-02-08 15:12:00,84.7,67.3,29.40,West,270,0.0,0.0,56,0.00,,,0.00,WUHU21623XXSP,2013-02-08 20:12:00,
2013-02-08 15:17:00,85.3,67.8,29.40,West,270,0.0,0.0,56,0.00,,,0.00,WUHU21623XXSP,2013-02-08 20:17:00,
2013-02-08 15:22:00,85.8,67.7,29.40,NNE,22,0.0,0.0,55,0.00,,,0.00,WUHU21623XXSP,2013-02-08 20:22:00,
2013-02-08 15:27:00,85.3,67.3,29.40,West,270,0.0,0.0,55,0.00,,,0.00,WUHU21623XXSP,2013-02-08 20:27:00,
2013-02-08 15:32:00,85.1,67.6,29.40,West,270,0.0,0.0,56,0.00,,,0.00,WUHU21623XXSP,2013-02-08 20:32:00,
2013-02-08 15:37:00,85.3,67.3,29.39,WSW,247,0.0,0.0,55,0.00,,,0.00,WUHU21623XXSP,2013-02-08 20:37:00,
2013-02-08 15:42:00,84.9,66.9,29.39,WNW,292,0.0,0.0,55,0.00,,,0.00,WUHU21623XXSP,2013-02-08 20:42:00,
2013-02-08 15:47:00,84.9,66.9,29.39,NNW,337,0.0,0.0,55,0.00,,,0.00,WUHU21623XXSP,2013-02-08 20:47:00,
2013-02-08 15:52:00,83.8,66.5,29.39,West,270,0.0,0.0,56,0.00,,,0.00,WUHU21623XXSP,2013-02-08 20:52:00,
2013-02-08 15:57:00,83.1,66.3,29.39,North,0,0.0,0.0,57,0.00,,,0.00,WUHU21623XXSP,2013-02-08 20:57:00,
2013-02-08 16:02:00,83.5,67.1,29.39,NW,315,0.0,0.0,58,0.00,,,0.00,WUHU21623XXSP,2013-02-08 21:02:00,
2013-02-08 16:07:00,83.7,66.8,29.39,NNW,337,0.0,0.0,57,0.00,,,0.00,WUHU21623XXSP,2013-02-08 21:07:00,
2013-02-08 16:12:00,83.5,66.6,29.39,NNW,337,0.0,0.0,57,0.00,,,0.00,WUHU21623XXSP,2013-02-08 21:12:00,
2013-02-08 16:17:00,83.7,66.8,29.39,WNW,292,0.0,0.0,57,0.00,,,0.00,WUHU21623XXSP,2013-02-08 21:17:00,
2013-02-08 16:22:00,83.8,67.0,29.39,NNW,337,0.0,0.0,57,0.00,,,0.00,WUHU21623XXSP,2013-02-08 21:22:00,
2013-02-08 16:27:00,83.1,66.3,29.39,NE,45,0.0,0.0,57,0.00,,,0.00,WUHU21623XXSP,2013-02-08 21:27:00,
2013-02-08 16:32:00,83.1,66.8,29.39,NNE,22,0.0,0.0,58,0.00,,,0.00,WUHU21623XXSP,2013-02-08 21:32:00,
2013-02-08 16:37:00,82.6,66.2,29.39,NNE,22,0.0,0.0,58,0.00,,,0.00,WUHU21623XXSP,2013-02-08 21:37:00,
2013-02-08 16:42:00,82.0,65.7,29.40,NNW,337,0.0,0.0,58,0.00,,,0.00,WUHU21623XXSP,2013-02-08 21:42:00,
2013-02-08 16:47:00,81.1,65.4,29.40,NNW,337,0.0,0.0,59,0.00,,,0.00,WUHU21623XXSP,2013-02-08 21:47:00,
2013-02-08 16:52:00,81.3,65.6,29.40,North,0,0.0,0.0,59,0.00,,,0.00,WUHU21623XXSP,2013-02-08 21:52:00,
2013-02-08 16:57:00,81.7,65.9,29.40,NNW,337,0.0,0.0,59,0.00,,,0.00,WUHU21623XXSP,2013-02-08 21:57:00,
2013-02-08 17:02:00,81.7,65.9,29.40,NW,315,0.0,0.0,59,0.00,,,0.00,WUHU21623XXSP,2013-02-08 22:02:00,
2013-02-08 17:07:00,81.3,66.1,29.40,NE,45,0.0,0.0,60,0.00,,,0.00,WUHU21623XXSP,2013-02-08 22:07:00,
2013-02-08 17:12:00,81.3,66.1,29.40,NNE,22,0.0,0.0,60,0.00,,,0.00,WUHU21623XXSP,2013-02-08 22:12:00,
2013-02-08 17:17:00,81.1,66.0,29.40,NNE,22,0.0,0.0,60,0.00,,,0.00,WUHU21623XXSP,2013-02-08 22:17:00,
2013-02-08 17:22:00,81.1,66.0,29.40,NNE,22,0.0,0.0,60,0.00,,,0.00,WUHU21623XXSP,2013-02-08 22:22:00,
2013-02-08 17:27:00,80.8,65.6,29.40,North,0,0.0,0.0,60,0.00,,,0.00,WUHU21623XXSP,2013-02-08 22:27:00,
2013-02-08 17:32:00,80.6,65.5,29.40,NNE,22,0.0,0.0,60,0.00,,,0.00,WUHU21623XXSP,2013-02-08 22:32:00,
2013-02-08 17:37:00,80.4,65.3,29.40,NNW,337,0.0,0.0,60,0.00,,,0.00,WUHU21623XXSP,2013-02-08 22:37:00,
2013-02-08 17:42:00,79.9,65.3,29.40,NNE,22,0.0,0.0,61,0.00,,,0.00,WUHU21623XXSP,2013-02-08 22:42:00,
2013-02-08 17:47:00,79.7,65.1,29.40,NNE,22,0.0,0.0,61,0.00,,,0.00,WUHU21623XXSP,2013-02-08 22:47:00,
2013-02-08 17:52:00,79.5,64.9,29.40,NNE,22,0.0,0.0,61,0.00,,,0.00,WUHU21623XXSP,2013-02-08 22:52:00,
2013-02-08 17:57:00,79.5,64.9,29.41,NNE,22,0.0,0.0,61,0.00,,,0.00,WUHU21623XXSP,2013-02-08 22:57:00,
2013-02-08 18:02:00,79.3,65.2,29.40,NNE,22,0.0,0.0,62,0.00,,,0.00,WUHU21623XXSP,2013-02-08 23:02:00,
2013-02-08 18:07:00,79.2,65.0,29.40,NNE,22,0.0,0.0,62,0.00,,,0.00,WUHU21623XXSP,2013-02-08 23:07:00,
2013-02-08 18:12:00,79.0,65.3,29.41,NNE,22,0.0,0.0,63,0.00,,,0.00,WUHU21623XXSP,2013-02-08 23:12:00,
2013-02-08 18:17:00,78.6,65.0,29.41,NNE,22,0.0,0.0,63,0.00,,,0.00,WUHU21623XXSP,2013-02-08 23:17:00,
2013-02-08 18:22:00,78.4,64.8,29.41,NNE,22,0.0,0.0,63,0.00,,,0.00,WUHU21623XXSP,2013-02-08 23:22:00,
2013-02-08 18:27:00,77.9,66.0,29.41,South,180,0.0,0.0,67,0.00,,,0.00,WUHU21623XXSP,2013-02-08 23:27:00,
2013-02-08 18:32:00,77.7,66.8,29.41,SSE,157,0.0,0.0,69,0.00,,,0.00,WUHU21623XXSP,2013-02-08 23:32:00,
2013-02-08 18:37:00,77.5,67.0,29.42,SSE,157,0.0,0.0,70,0.00,,,0.00,WUHU21623XXSP,2013-02-08 23:37:00,
2013-02-08 18:42:00,77.4,67.3,29.42,SSE,157,0.0,0.0,71,0.00,,,0.00,WUHU21623XXSP,2013-02-08 23:42:00,
2013-02-08 18:47:00,77.2,67.5,29.42,SE,135,0.0,0.0,72,0.00,,,0.00,WUHU21623XXSP,2013-02-08 23:47:00,
2013-02-08 18:52:00,76.8,67.1,29.42,SSE,157,0.0,0.0,72,0.00,,,0.00,WUHU21623XXSP,2013-02-08 23:52:00,
2013-02-08 18:57:00,76.8,67.5,29.42,SSE,157,0.0,0.0,73,0.00,,,0.00,WUHU21623XXSP,2013-02-08 23:57:00,
2013-02-08 19:02:00,76.6,67.3,29.42,SSE,157,0.0,0.0,73,0.00,,,0.00,WUHU21623XXSP,2013-02-09 00:02:00,
2013-02-08 19:07:00,76.5,67.2,29.42,SSE,157,0.0,0.0,73,0.00,,,0.00,WUHU21623XXSP,2013-02-09 00:07:00,
2013-02-08 19:12:00,76.3,67.4,29.42,SE,135,0.0,0.0,74,0.00,,,0.00,WUHU21623XXSP,2013-02-09 00:12:00,
2013-02-08 19:17:00,76.1,67.2,29.42,SSE,157,0.0,0.0,74,0.00,,,0.00,WUHU21623XXSP,2013-02-09 00:17:00,
2013-02-08 19:22:00,75.9,67.0,29.43,SSE,157,0.0,0.0,74,0.00,,,0.00,WUHU21623XXSP,2013-02-09 00:22:00,
2013-02-08 19:27:00,75.9,67.4,29.43,SSE,157,0.0,0.0,75,0.00,,,0.00,WUHU21623XXSP,2013-02-09 00:27:00,
2013-02-08 19:32:00,75.7,67.2,29.43,SSE,157,0.0,0.0,75,0.00,,,0.00,WUHU21623XXSP,2013-02-09 00:32:00,
2013-02-08 19:37:00,75.6,67.5,29.43,SSE,157,0.0,0.0,76,0.00,,,0.00,WUHU21623XXSP,2013-02-09 00:37:00,
2013-02-08 19:42:00,75.4,67.3,29.44,SSE,157,0.0,0.0,76,0.00,,,0.00,WUHU21623XXSP,2013-02-09 00:42:00,
2013-02-08 19:47:00,75.4,67.3,29.43,SSE,157,0.0,0.0,76,0.00,,,0.00,WUHU21623XXSP,2013-02-09 00:47:00,
2013-02-08 19:52:00,75.4,67.7,29.44,SSE,157,0.0,0.0,77,0.00,,,0.00,WUHU21623XXSP,2013-02-09 00:52:00,
2013-02-08 19:57:00,75.0,67.4,29.44,SSE,157,0.0,0.0,77,0.00,,,0.00,WUHU21623XXSP,2013-02-09 00:57:00,
2013-02-08 20:02:00,75.0,67.7,29.44,SSE,157,0.0,0.0,78,0.00,,,0.00,WUHU21623XXSP,2013-02-09 01:02:00,
2013-02-08 20:07:00,74.8,67.6,29.44,SSE,157,0.0,0.0,78,0.00,,,0.00,WUHU21623XXSP,2013-02-09 01:07:00,
2013-02-08 20:12:00,74.8,67.6,29.44,SSE,157,0.0,0.0,78,0.00,,,0.00,WUHU21623XXSP,2013-02-09 01:12:00,
2013-02-08 20:17:00,74.5,67.2,29.45,SSE,157,0.0,0.0,78,0.00,,,0.00,WUHU21623XXSP,2013-02-09 01:17:00,
2013-02-08 20:22:00,74.5,67.6,29.45,SSE,157,0.0,0.0,79,0.00,,,0.00,WUHU21623XXSP,2013-02-09 01:22:00,
2013-02-08 20:27:00,74.3,67.4,29.45,SSE,157,0.0,0.0,79,0.00,,,0.00,WUHU21623XXSP,2013-02-09 01:27:00,
2013-02-08 20:32:00,74.3,67.8,29.45,SSE,157,0.0,0.0,80,0.00,,,0.00,WUHU21623XXSP,2013-02-09 01:32:00,
2013-02-08 20:37:00,74.1,67.6,29.45,SSE,157,0.0,0.0,80,0.00,,,0.00,WUHU21623XXSP,2013-02-09 01:37:00,
2013-02-08 20:42:00,73.9,67.6,29.45,SSE,157,0.0,0.0,80,0.00,,,0.00,WUHU21623XXSP,2013-02-09 01:42:00,
2013-02-08 20:47:00,73.9,67.5,29.45,SSE,157,0.0,0.0,80,0.00,,,0.00,WUHU21623XXSP,2013-02-09 01:47:00,
2013-02-08 20:52:00,73.9,67.5,29.45,SSE,157,0.0,0.0,80,0.00,,,0.00,WUHU21623XXSP,2013-02-09 01:52:00,
2013-02-08 20:58:00,73.8,67.3,29.46,SSE,157,0.0,0.0,80,0.00,,,0.00,WUHU21623XXSP,2013-02-09 01:58:00,
2013-02-08 21:02:00,73.6,67.4,29.45,SSE,157,0.0,0.0,81,0.00,,,0.00,WUHU21623XXSP,2013-02-09 02:02:00,
2013-02-08 21:08:00,73.6,67.1,29.46,SSE,157,0.0,0.0,80,0.00,,,0.00,WUHU21623XXSP,2013-02-09 02:08:00,
2013-02-08 21:13:00,73.4,66.9,29.46,SSE,157,0.0,0.0,80,0.00,,,0.00,WUHU21623XXSP,2013-02-09 02:13:00,
2013-02-08 21:18:00,73.2,66.7,29.46,SSE,157,0.0,0.0,80,0.00,,,0.00,WUHU21623XXSP,2013-02-09 02:18:00,
2013-02-08 21:22:00,73.2,66.7,29.45,SSE,157,0.0,0.0,80,0.00,,,0.00,WUHU21623XXSP,2013-02-09 02:22:00,
2013-02-08 21:27:00,73.0,66.9,29.46,SSE,157,0.0,0.0,81,0.00,,,0.00,WUHU21623XXSP,2013-02-09 02:27:00,
2013-02-08 21:32:00,73.0,66.9,29.46,SSE,157,0.0,0.0,81,0.00,,,0.00,WUHU21623XXSP,2013-02-09 02:32:00,
2013-02-08 21:37:00,72.9,66.7,29.46,SSE,157,0.0,0.0,81,0.00,,,0.00,WUHU21623XXSP,2013-02-09 02:37:00,
2013-02-08 21:42:00,72.7,66.5,29.46,SSE,157,0.0,0.0,81,0.00,,,0.00,WUHU21623XXSP,2013-02-09 02:42:00,
2013-02-08 21:47:00,72.5,66.7,29.46,SSE,157,0.0,0.0,82,0.00,,,0.00,WUHU21623XXSP,2013-02-09 02:47:00,
2013-02-08 21:52:00,72.3,66.5,29.46,SSE,157,0.0,0.0,82,0.00,,,0.00,WUHU21623XXSP,2013-02-09 02:52:00,
2013-02-08 21:57:00,72.1,66.3,29.46,SSE,157,0.0,0.0,82,0.00,,,0.00,WUHU21623XXSP,2013-02-09 02:57:00,
2013-02-08 22:02:00,72.1,66.3,29.47,SSE,157,0.0,0.0,82,0.00,,,0.00,WUHU21623XXSP,2013-02-09 03:02:00,
2013-02-08 22:07:00,72.0,66.2,29.47,SSE,157,0.0,0.0,82,0.00,,,0.00,WUHU21623XXSP,2013-02-09 03:07:00,
2013-02-08 22:12:00,72.0,66.2,29.47,SSE,157,0.0,0.0,82,0.00,,,0.00,WUHU21623XXSP,2013-02-09 03:12:00,
2013-02-08 22:17:00,71.8,66.0,29.47,SSE,157,0.0,0.0,82,0.00,,,0.00,WUHU21623XXSP,2013-02-09 03:17:00,
2013-02-08 22:22:00,71.4,66.0,29.47,SSE,157,0.0,0.0,83,0.00,,,0.00,WUHU21623XXSP,2013-02-09 03:22:00,
2013-02-08 22:27:00,71.6,66.1,29.47,SSE,157,0.0,0.0,83,0.00,,,0.00,WUHU21623XXSP,2013-02-09 03:27:00,
2013-02-08 22:32:00,71.4,65.6,29.47,SSE,157,0.0,0.0,82,0.00,,,0.00,WUHU21623XXSP,2013-02-09 03:32:00,
2013-02-08 22:37:00,71.4,66.0,29.47,SSE,157,0.0,0.0,83,0.00,,,0.00,WUHU21623XXSP,2013-02-09 03:37:00,
2013-02-08 22:42:00,71.2,65.8,29.47,SSE,157,0.0,0.0,83,0.00,,,0.00,WUHU21623XXSP,2013-02-09 03:42:00,
2013-02-08 22:47:00,71.1,65.6,29.47,SSE,157,0.0,0.0,83,0.00,,,0.00,WUHU21623XXSP,2013-02-09 03:47:00,
2013-02-08 22:52:00,70.9,65.4,29.47,SSE,157,0.0,0.0,83,0.00,,,0.00,WUHU21623XXSP,2013-02-09 03:52:00,
2013-02-08 22:57:00,70.9,65.4,29.47,SSE,157,0.0,0.0,83,0.00,,,0.00,WUHU21623XXSP,2013-02-09 03:57:00,
2013-02-08 23:02:00,70.9,65.4,29.47,SSE,157,0.0,0.0,83,0.00,,,0.00,WUHU21623XXSP,2013-02-09 04:02:00,
2013-02-08 23:08:00,71.1,65.6,29.48,West,270,0.0,0.0,83,0.00,,,0.00,WUHU21623XXSP,2013-02-09 04:08:00,
2013-02-08 23:13:00,71.1,65.6,29.48,West,270,0.0,0.0,83,0.00,,,0.00,WUHU21623XXSP,2013-02-09 04:13:00,
2013-02-08 23:17:00,71.1,65.9,29.48,West,270,0.0,0.0,84,0.00,,,0.00,WUHU21623XXSP,2013-02-09 04:17:00,
2013-02-08 23:22:00,70.9,65.8,29.48,West,270,0.0,0.0,84,0.00,,,0.00,WUHU21623XXSP,2013-02-09 04:22:00,
2013-02-08 23:27:00,70.7,65.6,29.48,West,270,0.0,0.0,84,0.00,,,0.00,WUHU21623XXSP,2013-02-09 04:27:00,
2013-02-08 23:32:00,70.5,65.4,29.48,West,270,0.0,0.0,84,0.00,,,0.00,WUHU21623XXSP,2013-02-09 04:32:00,
2013-02-08 23:37:00,70.5,65.4,29.48,West,270,0.0,0.0,84,0.00,,,0.00,WUHU21623XXSP,2013-02-09 04:37:00,
2013-02-08 23:43:00,70.3,65.2,29.48,West,270,0.0,0.0,84,0.00,,,0.00,WUHU21623XXSP,2013-02-09 04:43:00,
2013-02-08 23:48:00,70.3,64.9,29.47,West,270,0.0,0.0,83,0.00,,,0.00,WUHU21623XXSP,2013-02-09 04:48:00,
2013-02-08 23:53:00,70.2,64.7,29.48,West,270,0.0,0.0,83,0.00,,,0.00,WUHU21623XXSP,2013-02-09 04:53:00,
2013-02-08 23:58:00,70.0,64.7,29.47,West,270,0.0,0.0,82,0.00,,,0.00,WUHU21623XXSP,2013-02-09 04:58:00,